Terminal Aerodrome Forecast
Issued by NWS

Home | Current Version | Previous Version | Text Only | Print | Product List | Glossary On
Versions: 1 2 3 4 5 6 7 8 9 10 11 12 13 14 15
378
FTUS43 KOAX 291132
TAFBFF
TAF
KBFF 291132Z 2912/3012 VRB05KT P6SM SCT100
     FM292200 14007KT P6SM VCTS BKN100CB
     FM300300 10005KT P6SM SCT100=

USA.gov is the U.S. government's official web portal to all federal, state and local government web resources and services.